sensor_id;sensor_type;location;lat;lon;timestamp;P1;durP1;ratioP1;P2;durP2;ratioP2
5277;SDS011;2662;51.194;6.614;2024-01-15T00:01:18;4.83;;;3.30;;
5277;SDS011;2662;51.194;6.614;2024-01-15T00:03:48;3.43;;;3.17;;
5277;SDS011;2662;51.194;6.614;2024-01-15T00:06:17;3.00;;;2.30;;
5277;SDS011;2662;51.194;6.614;2024-01-15T00:08:44;3.00;;;2.73;;
5277;SDS011;2662;51.194;6.614;2024-01-15T00:11:11;5.97;;;3.23;;
5277;SDS011;2662;51.194;6.614;2024-01-15T00:13:40;6.70;;;3.67;;
5277;SDS011;2662;51.194;6.614;2024-01-15T00:16:10;6.53;;;3.17;;
5277;SDS011;2662;51.194;6.614;2024-01-15T00:18:37;6.37;;;4.27;;
5277;SDS011;2662;51.194;6.614;2024-01-15T00:21:05;2.37;;;2.17;;
5277;SDS011;2662;51.194;6.614;2024-01-15T00:23:34;5.47;;;3.13;;
5277;SDS011;2662;51.194;6.614;2024-01-15T00:26:01;3.90;;;1.80;;
5277;SDS011;2662;51.194;6.614;2024-01-15T00:28:29;3.83;;;2.77;;
5277;SDS011;2662;51.194;6.614;2024-01-15T00:31:03;10.03;;;2.57;;
5277;SDS011;2662;51.194;6.614;2024-01-15T00:33:37;4.73;;;2.80;;
5277;SDS011;2662;51.194;6.614;2024-01-15T00:36:10;5.43;;;3.53;;
5277;SDS011;2662;51.194;6.614;2024-01-15T00:38:37;5.67;;;3.87;;
5277;SDS011;2662;51.194;6.614;2024-01-15T00:41:04;3.70;;;2.67;;
5277;SDS011;2662;51.194;6.614;2024-01-15T00:43:34;5.17;;;3.13;;
5277;SDS011;2662;51.194;6.614;2024-01-15T00:46:01;8.80;;;4.87;;
5277;SDS011;2662;51.194;6.614;2024-01-15T00:48:33;2.80;;;2.10;;
5277;SDS011;2662;51.194;6.614;2024-01-15T00:51:00;2.37;;;1.83;;
5277;SDS011;2662;51.194;6.614;2024-01-15T00:53:29;6.80;;;2.80;;
5277;SDS011;2662;51.194;6.614;2024-01-15T00:55:57;6.03;;;4.07;;
5277;SDS011;2662;51.194;6.614;2024-01-15T00:58:25;3.30;;;2.43;;
5277;SDS011;2662;51.194;6.614;2024-01-15T01:00:53;7.23;;;3.27;;
5277;SDS011;2662;51.194;6.614;2024-01-15T01:03:22;1.90;;;1.80;;
5277;SDS011;2662;51.194;6.614;2024-01-15T01:05:52;4.67;;;2.67;;
5277;SDS011;2662;51.194;6.614;2024-01-15T01:08:19;4.57;;;2.47;;
5277;SDS011;2662;51.194;6.614;2024-01-15T01:10:45;7.80;;;3.27;;
5277;SDS011;2662;51.194;6.614;2024-01-15T01:13:12;3.63;;;3.30;;
5277;SDS011;2662;51.194;6.614;2024-01-15T01:15:39;2.40;;;1.57;;
5277;SDS011;2662;51.194;6.614;2024-01-15T01:18:07;4.73;;;1.67;;
5277;SDS011;2662;51.194;6.614;2024-01-15T01:20:34;9.80;;;1.83;;
5277;SDS011;2662;51.194;6.614;2024-01-15T01:23:05;3.50;;;2.10;;
5277;SDS011;2662;51.194;6.614;2024-01-15T01:25:34;2.83;;;2.60;;
5277;SDS011;2662;51.194;6.614;2024-01-15T01:28:02;3.87;;;2.70;;
5277;SDS011;2662;51.194;6.614;2024-01-15T01:30:29;2.00;;;1.90;;
5277;SDS011;2662;51.194;6.614;2024-01-15T01:32:57;2.37;;;2.17;;
5277;SDS011;2662;51.194;6.614;2024-01-15T01:35:28;13.00;;;3.17;;
5277;SDS011;2662;51.194;6.614;2024-01-15T01:37:55;2.43;;;2.23;;
5277;SDS011;2662;51.194;6.614;2024-01-15T01:40:29;4.63;;;2.83;;
5277;SDS011;2662;51.194;6.614;2024-01-15T01:43:02;11.50;;;4.33;;
5277;SDS011;2662;51.194;6.614;2024-01-15T01:45:34;5.17;;;2.70;;
5277;SDS011;2662;51.194;6.614;2024-01-15T01:48:00;2.93;;;2.33;;
5277;SDS011;2662;51.194;6.614;2024-01-15T01:50:28;4.07;;;2.70;;
5277;SDS011;2662;51.194;6.614;2024-01-15T01:52:57;2.03;;;1.93;;
5277;SDS011;2662;51.194;6.614;2024-01-15T01:55:30;3.73;;;2.00;;
5277;SDS011;2662;51.194;6.614;2024-01-15T01:57:59;4.23;;;2.10;;
5277;SDS011;2662;51.194;6.614;2024-01-15T02:00:29;4.00;;;2.20;;
5277;SDS011;2662;51.194;6.614;2024-01-15T02:02:57;3.73;;;3.40;;
5277;SDS011;2662;51.194;6.614;2024-01-15T02:05:28;4.43;;;2.40;;
5277;SDS011;2662;51.194;6.614;2024-01-15T02:07:56;9.50;;;3.37;;
5277;SDS011;2662;51.194;6.614;2024-01-15T02:10:23;2.57;;;2.37;;
5277;SDS011;2662;51.194;6.614;2024-01-15T02:12:52;4.50;;;2.60;;
5277;SDS011;2662;51.194;6.614;2024-01-15T02:15:19;4.00;;;2.47;;
5277;SDS011;2662;51.194;6.614;2024-01-15T02:17:57;4.23;;;1.80;;
5277;SDS011;2662;51.194;6.614;2024-01-15T02:20:25;4.30;;;2.70;;
5277;SDS011;2662;51.194;6.614;2024-01-15T02:22:54;4.83;;;2.27;;
5277;SDS011;2662;51.194;6.614;2024-01-15T02:25:30;3.67;;;3.37;;
5277;SDS011;2662;51.194;6.614;2024-01-15T02:27:57;2.27;;;2.07;;
5277;SDS011;2662;51.194;6.614;2024-01-15T02:30:27;3.97;;;2.57;;
5277;SDS011;2662;51.194;6.614;2024-01-15T02:33:02;2.37;;;1.33;;
5277;SDS011;2662;51.194;6.614;2024-01-15T02:35:32;3.93;;;2.57;;
5277;SDS011;2662;51.194;6.614;2024-01-15T02:38:03;5.63;;;2.57;;
5277;SDS011;2662;51.194;6.614;2024-01-15T02:40:31;1.87;;;1.70;;
5277;SDS011;2662;51.194;6.614;2024-01-15T02:43:00;4.10;;;3.13;;
5277;SDS011;2662;51.194;6.614;2024-01-15T02:45:27;2.00;;;1.90;;
5277;SDS011;2662;51.194;6.614;2024-01-15T02:47:56;3.10;;;2.27;;
5277;SDS011;2662;51.194;6.614;2024-01-15T02:50:23;1.77;;;1.67;;
5277;SDS011;2662;51.194;6.614;2024-01-15T02:52:51;2.10;;;2.00;;
5277;SDS011;2662;51.194;6.614;2024-01-15T02:55:22;2.53;;;1.70;;
5277;SDS011;2662;51.194;6.614;2024-01-15T02:57:49;2.20;;;1.93;;
5277;SDS011;2662;51.194;6.614;2024-01-15T03:00:19;3.60;;;1.00;;
5277;SDS011;2662;51.194;6.614;2024-01-15T03:02:54;3.30;;;2.30;;
5277;SDS011;2662;51.194;6.614;2024-01-15T03:05:21;4.30;;;2.00;;
5277;SDS011;2662;51.194;6.614;2024-01-15T03:07:48;1.60;;;1.50;;
5277;SDS011;2662;51.194;6.614;2024-01-15T03:10:31;3.27;;;2.43;;
5277;SDS011;2662;51.194;6.614;2024-01-15T03:12:59;3.07;;;1.70;;
5277;SDS011;2662;51.194;6.614;2024-01-15T03:15:28;2.33;;;1.53;;
5277;SDS011;2662;51.194;6.614;2024-01-15T03:17:56;3.07;;;1.33;;
5277;SDS011;2662;51.194;6.614;2024-01-15T03:20:23;2.30;;;2.00;;
5277;SDS011;2662;51.194;6.614;2024-01-15T03:22:50;3.23;;;2.97;;
5277;SDS011;2662;51.194;6.614;2024-01-15T03:25:18;4.20;;;2.27;;
5277;SDS011;2662;51.194;6.614;2024-01-15T03:27:54;2.13;;;1.53;;
5277;SDS011;2662;51.194;6.614;2024-01-15T03:30:21;1.33;;;1.30;;
5277;SDS011;2662;51.194;6.614;2024-01-15T03:32:51;3.40;;;2.17;;
5277;SDS011;2662;51.194;6.614;2024-01-15T03:35:18;1.60;;;1.50;;
5277;SDS011;2662;51.194;6.614;2024-01-15T03:37:45;1.77;;;1.30;;
5277;SDS011;2662;51.194;6.614;2024-01-15T03:40:11;2.20;;;2.10;;
5277;SDS011;2662;51.194;6.614;2024-01-15T03:42:38;6.90;;;2.20;;
5277;SDS011;2662;51.194;6.614;2024-01-15T03:45:07;4.70;;;3.30;;
5277;SDS011;2662;51.194;6.614;2024-01-15T03:47:35;1.00;;;1.00;;
5277;SDS011;2662;51.194;6.614;2024-01-15T03:50:02;1.90;;;0.87;;
5277;SDS011;2662;51.194;6.614;2024-01-15T03:52:29;4.20;;;1.83;;
5277;SDS011;2662;51.194;6.614;2024-01-15T03:54:56;1.30;;;1.30;;
5277;SDS011;2662;51.194;6.614;2024-01-15T03:57:31;4.93;;;1.70;;
5277;SDS011;2662;51.194;6.614;2024-01-15T04:00:01;9.27;;;2.47;;
5277;SDS011;2662;51.194;6.614;2024-01-15T04:02:30;2.30;;;1.97;;
5277;SDS011;2662;51.194;6.614;2024-01-15T04:05:03;10.00;;;3.23;;
5277;SDS011;2662;51.194;6.614;2024-01-15T04:07:32;3.13;;;1.47;;
5277;SDS011;2662;51.194;6.614;2024-01-15T04:09:58;2.77;;;2.40;;
5277;SDS011;2662;51.194;6.614;2024-01-15T04:12:25;1.43;;;1.23;;
5277;SDS011;2662;51.194;6.614;2024-01-15T04:14:52;0.60;;;0.60;;
5277;SDS011;2662;51.194;6.614;2024-01-15T04:17:20;1.53;;;1.13;;
5277;SDS011;2662;51.194;6.614;2024-01-15T04:19:52;1.37;;;1.27;;
5277;SDS011;2662;51.194;6.614;2024-01-15T04:22:21;1.33;;;1.20;;
5277;SDS011;2662;51.194;6.614;2024-01-15T04:24:54;1.67;;;1.27;;
5277;SDS011;2662;51.194;6.614;2024-01-15T04:27:21;1.97;;;1.87;;
5277;SDS011;2662;51.194;6.614;2024-01-15T04:29:48;2.03;;;1.17;;
5277;SDS011;2662;51.194;6.614;2024-01-15T04:32:15;1.87;;;1.13;;
5277;SDS011;2662;51.194;6.614;2024-01-15T04:34:43;1.73;;;1.13;;
5277;SDS011;2662;51.194;6.614;2024-01-15T04:37:13;1.63;;;1.53;;
5277;SDS011;2662;51.194;6.614;2024-01-15T04:39:47;1.17;;;1.10;;
5277;SDS011;2662;51.194;6.614;2024-01-15T04:42:17;0.83;;;0.83;;
5277;SDS011;2662;51.194;6.614;2024-01-15T04:44:44;4.77;;;1.20;;
5277;SDS011;2662;51.194;6.614;2024-01-15T04:47:12;1.90;;;1.43;;
5277;SDS011;2662;51.194;6.614;2024-01-15T04:49:39;8.00;;;1.10;;
5277;SDS011;2662;51.194;6.614;2024-01-15T04:52:09;1.50;;;1.47;;
5277;SDS011;2662;51.194;6.614;2024-01-15T04:54:37;5.10;;;1.90;;
5277;SDS011;2662;51.194;6.614;2024-01-15T04:57:05;0.87;;;0.87;;
5277;SDS011;2662;51.194;6.614;2024-01-15T04:59:32;1.50;;;1.40;;
5277;SDS011;2662;51.194;6.614;2024-01-15T05:02:00;1.20;;;1.20;;
5277;SDS011;2662;51.194;6.614;2024-01-15T05:04:30;1.07;;;0.90;;
5277;SDS011;2662;51.194;6.614;2024-01-15T05:07:01;2.33;;;1.57;;
5277;SDS011;2662;51.194;6.614;2024-01-15T05:09:28;0.83;;;0.83;;
5277;SDS011;2662;51.194;6.614;2024-01-15T05:11:58;1.33;;;1.23;;
5277;SDS011;2662;51.194;6.614;2024-01-15T05:14:24;3.23;;;2.20;;
5277;SDS011;2662;51.194;6.614;2024-01-15T05:16:53;4.33;;;1.63;;
5277;SDS011;2662;51.194;6.614;2024-01-15T05:19:20;1.70;;;1.50;;
5277;SDS011;2662;51.194;6.614;2024-01-15T05:21:46;2.10;;;1.63;;
5277;SDS011;2662;51.194;6.614;2024-01-15T05:24:14;1.83;;;1.20;;
5277;SDS011;2662;51.194;6.614;2024-01-15T05:26:42;1.57;;;1.47;;
5277;SDS011;2662;51.194;6.614;2024-01-15T05:29:11;1.73;;;1.63;;
5277;SDS011;2662;51.194;6.614;2024-01-15T05:31:39;14.50;;;2.20;;
5277;SDS011;2662;51.194;6.614;2024-01-15T05:34:05;0.83;;;0.83;;
5277;SDS011;2662;51.194;6.614;2024-01-15T05:36:34;1.43;;;1.27;;
5277;SDS011;2662;51.194;6.614;2024-01-15T05:39:03;1.50;;;1.10;;
5277;SDS011;2662;51.194;6.614;2024-01-15T05:41:30;1.53;;;1.43;;
5277;SDS011;2662;51.194;6.614;2024-01-15T05:43:57;1.40;;;1.30;;
5277;SDS011;2662;51.194;6.614;2024-01-15T05:46:33;1.17;;;1.00;;
5277;SDS011;2662;51.194;6.614;2024-01-15T05:49:00;2.90;;;1.87;;
5277;SDS011;2662;51.194;6.614;2024-01-15T05:51:30;3.63;;;1.30;;
5277;SDS011;2662;51.194;6.614;2024-01-15T05:54:01;2.33;;;1.23;;
5277;SDS011;2662;51.194;6.614;2024-01-15T05:56:43;1.90;;;0.63;;
5277;SDS011;2662;51.194;6.614;2024-01-15T05:59:09;1.20;;;1.10;;
5277;SDS011;2662;51.194;6.614;2024-01-15T06:01:39;2.00;;;1.80;;
5277;SDS011;2662;51.194;6.614;2024-01-15T06:04:06;1.73;;;1.20;;
5277;SDS011;2662;51.194;6.614;2024-01-15T06:06:36;2.33;;;1.90;;
5277;SDS011;2662;51.194;6.614;2024-01-15T06:09:03;1.57;;;1.40;;
5277;SDS011;2662;51.194;6.614;2024-01-15T06:11:31;1.63;;;1.10;;
5277;SDS011;2662;51.194;6.614;2024-01-15T06:13:59;4.13;;;1.83;;
5277;SDS011;2662;51.194;6.614;2024-01-15T06:16:26;0.97;;;0.97;;
5277;SDS011;2662;51.194;6.614;2024-01-15T06:18:57;1.60;;;1.07;;
5277;SDS011;2662;51.194;6.614;2024-01-15T06:21:38;1.33;;;1.23;;
5277;SDS011;2662;51.194;6.614;2024-01-15T06:24:08;0.50;;;0.50;;
5277;SDS011;2662;51.194;6.614;2024-01-15T06:26:38;1.93;;;1.53;;
5277;SDS011;2662;51.194;6.614;2024-01-15T06:29:05;1.43;;;1.03;;
5277;SDS011;2662;51.194;6.614;2024-01-15T06:31:34;0.87;;;0.87;;
5277;SDS011;2662;51.194;6.614;2024-01-15T06:34:02;1.23;;;1.23;;
5277;SDS011;2662;51.194;6.614;2024-01-15T06:36:29;13.33;;;1.30;;
5277;SDS011;2662;51.194;6.614;2024-01-15T06:38:59;0.80;;;0.80;;
5277;SDS011;2662;51.194;6.614;2024-01-15T06:41:25;1.10;;;1.10;;
5277;SDS011;2662;51.194;6.614;2024-01-15T06:43:55;2.10;;;0.97;;
5277;SDS011;2662;51.194;6.614;2024-01-15T06:46:26;0.93;;;0.93;;
5277;SDS011;2662;51.194;6.614;2024-01-15T06:48:52;1.43;;;1.33;;
5277;SDS011;2662;51.194;6.614;2024-01-15T06:51:27;1.33;;;1.20;;
5277;SDS011;2662;51.194;6.614;2024-01-15T06:53:53;2.20;;;2.00;;
5277;SDS011;2662;51.194;6.614;2024-01-15T06:56:20;0.83;;;0.83;;
5277;SDS011;2662;51.194;6.614;2024-01-15T06:58:47;2.20;;;2.00;;
5277;SDS011;2662;51.194;6.614;2024-01-15T07:01:14;1.73;;;1.40;;
5277;SDS011;2662;51.194;6.614;2024-01-15T07:03:40;1.33;;;1.23;;
5277;SDS011;2662;51.194;6.614;2024-01-15T07:06:08;4.83;;;1.47;;
5277;SDS011;2662;51.194;6.614;2024-01-15T07:08:36;9.70;;;1.67;;
5277;SDS011;2662;51.194;6.614;2024-01-15T07:11:05;2.93;;;1.50;;
5277;SDS011;2662;51.194;6.614;2024-01-15T07:13:33;1.73;;;1.33;;
5277;SDS011;2662;51.194;6.614;2024-01-15T07:16:04;1.43;;;1.33;;
5277;SDS011;2662;51.194;6.614;2024-01-15T07:18:35;1.90;;;1.47;;
5277;SDS011;2662;51.194;6.614;2024-01-15T07:21:02;1.97;;;1.83;;
5277;SDS011;2662;51.194;6.614;2024-01-15T07:23:30;1.30;;;1.20;;
5277;SDS011;2662;51.194;6.614;2024-01-15T07:25:59;1.90;;;1.20;;
5277;SDS011;2662;51.194;6.614;2024-01-15T07:28:28;2.20;;;2.00;;
5277;SDS011;2662;51.194;6.614;2024-01-15T07:30:57;3.57;;;3.27;;
5277;SDS011;2662;51.194;6.614;2024-01-15T07:33:34;1.23;;;1.20;;
5277;SDS011;2662;51.194;6.614;2024-01-15T07:36:11;0.80;;;0.80;;
5277;SDS011;2662;51.194;6.614;2024-01-15T07:38:40;4.53;;;1.37;;
5277;SDS011;2662;51.194;6.614;2024-01-15T07:41:09;0.77;;;0.77;;
5277;SDS011;2662;51.194;6.614;2024-01-15T07:43:36;3.17;;;1.33;;
5277;SDS011;2662;51.194;6.614;2024-01-15T07:46:05;2.00;;;1.23;;
5277;SDS011;2662;51.194;6.614;2024-01-15T07:48:32;4.30;;;1.70;;
5277;SDS011;2662;51.194;6.614;2024-01-15T07:51:03;2.80;;;1.33;;
5277;SDS011;2662;51.194;6.614;2024-01-15T07:53:30;1.97;;;1.10;;
5277;SDS011;2662;51.194;6.614;2024-01-15T07:55:57;1.13;;;1.03;;
5277;SDS011;2662;51.194;6.614;2024-01-15T07:58:28;1.70;;;1.60;;
5277;SDS011;2662;51.194;6.614;2024-01-15T08:00:59;1.93;;;0.93;;
5277;SDS011;2662;51.194;6.614;2024-01-15T08:03:26;1.40;;;1.30;;
5277;SDS011;2662;51.194;6.614;2024-01-15T08:05:54;1.10;;;1.10;;
5277;SDS011;2662;51.194;6.614;2024-01-15T08:08:22;2.33;;;1.40;;
5277;SDS011;2662;51.194;6.614;2024-01-15T08:10:50;2.00;;;1.77;;
5277;SDS011;2662;51.194;6.614;2024-01-15T08:13:19;1.40;;;1.33;;
5277;SDS011;2662;51.194;6.614;2024-01-15T08:15:47;2.03;;;1.70;;
5277;SDS011;2662;51.194;6.614;2024-01-15T08:18:17;4.50;;;2.33;;
5277;SDS011;2662;51.194;6.614;2024-01-15T08:20:47;3.40;;;1.80;;
5277;SDS011;2662;51.194;6.614;2024-01-15T08:23:14;0.90;;;0.90;;
5277;SDS011;2662;51.194;6.614;2024-01-15T08:25:43;1.27;;;1.10;;
5277;SDS011;2662;51.194;6.614;2024-01-15T08:28:10;2.00;;;1.80;;
5277;SDS011;2662;51.194;6.614;2024-01-15T08:30:37;3.60;;;1.57;;
5277;SDS011;2662;51.194;6.614;2024-01-15T08:33:07;1.90;;;1.50;;
5277;SDS011;2662;51.194;6.614;2024-01-15T08:35:36;2.67;;;1.87;;
5277;SDS011;2662;51.194;6.614;2024-01-15T08:38:03;3.20;;;1.57;;
5277;SDS011;2662;51.194;6.614;2024-01-15T08:40:31;2.80;;;1.30;;
5277;SDS011;2662;51.194;6.614;2024-01-15T08:42:59;2.23;;;1.53;;
5277;SDS011;2662;51.194;6.614;2024-01-15T08:45:27;2.27;;;2.17;;
5277;SDS011;2662;51.194;6.614;2024-01-15T08:47:54;1.53;;;1.43;;
5277;SDS011;2662;51.194;6.614;2024-01-15T08:50:25;1.80;;;1.50;;
5277;SDS011;2662;51.194;6.614;2024-01-15T08:52:54;1.60;;;1.33;;
5277;SDS011;2662;51.194;6.614;2024-01-15T08:55:23;2.33;;;2.03;;
5277;SDS011;2662;51.194;6.614;2024-01-15T08:57:50;2.33;;;2.13;;
5277;SDS011;2662;51.194;6.614;2024-01-15T09:00:17;1.50;;;1.43;;
5277;SDS011;2662;51.194;6.614;2024-01-15T09:02:45;1.83;;;1.73;;
5277;SDS011;2662;51.194;6.614;2024-01-15T09:05:12;1.70;;;1.60;;
5277;SDS011;2662;51.194;6.614;2024-01-15T09:07:43;2.80;;;2.20;;
5277;SDS011;2662;51.194;6.614;2024-01-15T09:10:11;1.97;;;1.87;;
5277;SDS011;2662;51.194;6.614;2024-01-15T09:12:44;7.33;;;1.93;;
5277;SDS011;2662;51.194;6.614;2024-01-15T09:15:11;3.30;;;2.33;;
5277;SDS011;2662;51.194;6.614;2024-01-15T09:17:39;1.33;;;0.90;;
5277;SDS011;2662;51.194;6.614;2024-01-15T09:20:06;1.63;;;1.53;;
5277;SDS011;2662;51.194;6.614;2024-01-15T09:22:37;1.23;;;1.20;;
5277;SDS011;2662;51.194;6.614;2024-01-15T09:25:08;3.50;;;1.90;;
5277;SDS011;2662;51.194;6.614;2024-01-15T09:27:35;1.70;;;1.50;;
5277;SDS011;2662;51.194;6.614;2024-01-15T09:30:04;1.13;;;1.03;;
5277;SDS011;2662;51.194;6.614;2024-01-15T09:32:32;2.00;;;1.83;;
5277;SDS011;2662;51.194;6.614;2024-01-15T09:34:59;1.93;;;1.83;;
5277;SDS011;2662;51.194;6.614;2024-01-15T09:37:26;1.37;;;0.87;;
5277;SDS011;2662;51.194;6.614;2024-01-15T09:40:03;1.13;;;1.13;;
5277;SDS011;2662;51.194;6.614;2024-01-15T09:42:33;0.80;;;0.80;;
5277;SDS011;2662;51.194;6.614;2024-01-15T09:45:11;1.07;;;0.87;;
5277;SDS011;2662;51.194;6.614;2024-01-15T09:47:42;0.50;;;0.50;;
5277;SDS011;2662;51.194;6.614;2024-01-15T09:50:09;0.60;;;0.60;;
5277;SDS011;2662;51.194;6.614;2024-01-15T09:52:40;1.37;;;1.23;;
5277;SDS011;2662;51.194;6.614;2024-01-15T09:55:08;1.00;;;1.00;;
5277;SDS011;2662;51.194;6.614;2024-01-15T09:57:40;0.60;;;0.60;;
5277;SDS011;2662;51.194;6.614;2024-01-15T10:00:09;0.80;;;0.80;;
5277;SDS011;2662;51.194;6.614;2024-01-15T10:05:56;0.60;;;0.47;;
5277;SDS011;2662;51.194;6.614;2024-01-15T10:08:29;2.27;;;1.10;;
5277;SDS011;2662;51.194;6.614;2024-01-15T10:10:58;0.80;;;0.43;;
5277;SDS011;2662;51.194;6.614;2024-01-15T10:13:31;0.87;;;0.60;;
5277;SDS011;2662;51.194;6.614;2024-01-15T10:16:01;0.63;;;0.63;;
5277;SDS011;2662;51.194;6.614;2024-01-15T10:18:30;0.50;;;0.50;;
5277;SDS011;2662;51.194;6.614;2024-01-15T10:20:57;0.93;;;0.83;;
5277;SDS011;2662;51.194;6.614;2024-01-15T10:23:32;0.70;;;0.30;;
5277;SDS011;2662;51.194;6.614;2024-01-15T10:26:53;0.50;;;0.40;;
5277;SDS011;2662;51.194;6.614;2024-01-15T10:39:57;1.10;;;0.47;;
5277;SDS011;2662;51.194;6.614;2024-01-15T10:43:08;0.50;;;0.50;;
5277;SDS011;2662;51.194;6.614;2024-01-15T10:45:39;0.37;;;0.37;;
5277;SDS011;2662;51.194;6.614;2024-01-15T10:48:06;0.40;;;0.40;;
5277;SDS011;2662;51.194;6.614;2024-01-15T10:50:41;0.50;;;0.50;;
5277;SDS011;2662;51.194;6.614;2024-01-15T10:53:11;0.70;;;0.40;;
5277;SDS011;2662;51.194;6.614;2024-01-15T10:55:42;2.00;;;0.50;;
5277;SDS011;2662;51.194;6.614;2024-01-15T10:58:12;0.37;;;0.37;;
5277;SDS011;2662;51.194;6.614;2024-01-15T11:00:41;0.30;;;0.30;;
5277;SDS011;2662;51.194;6.614;2024-01-15T11:03:15;0.30;;;0.30;;
5277;SDS011;2662;51.194;6.614;2024-01-15T11:05:45;0.40;;;0.40;;
5277;SDS011;2662;51.194;6.614;2024-01-15T11:08:16;1.13;;;0.60;;
5277;SDS011;2662;51.194;6.614;2024-01-15T11:10:45;1.13;;;0.40;;
5277;SDS011;2662;51.194;6.614;2024-01-15T11:13:14;0.30;;;0.30;;
5277;SDS011;2662;51.194;6.614;2024-01-15T11:18:34;0.30;;;0.30;;
5277;SDS011;2662;51.194;6.614;2024-01-15T11:21:21;0.40;;;0.40;;
5277;SDS011;2662;51.194;6.614;2024-01-15T11:23:57;0.50;;;0.50;;
5277;SDS011;2662;51.194;6.614;2024-01-15T11:26:35;0.97;;;0.97;;
5277;SDS011;2662;51.194;6.614;2024-01-15T11:29:04;5.00;;;0.90;;
5277;SDS011;2662;51.194;6.614;2024-01-15T11:37:27;3.23;;;0.60;;
5277;SDS011;2662;51.194;6.614;2024-01-15T11:40:00;0.57;;;0.57;;
5277;SDS011;2662;51.194;6.614;2024-01-15T11:42:37;0.40;;;0.40;;
5277;SDS011;2662;51.194;6.614;2024-01-15T11:45:07;0.60;;;0.60;;
5277;SDS011;2662;51.194;6.614;2024-01-15T11:50:39;2.40;;;1.43;;
5277;SDS011;2662;51.194;6.614;2024-01-15T11:53:21;0.63;;;0.63;;
5277;SDS011;2662;51.194;6.614;2024-01-15T11:56:37;0.50;;;0.50;;
5277;SDS011;2662;51.194;6.614;2024-01-15T11:59:05;0.50;;;0.50;;
5277;SDS011;2662;51.194;6.614;2024-01-15T12:01:38;0.60;;;0.60;;
5277;SDS011;2662;51.194;6.614;2024-01-15T12:04:12;2.30;;;1.33;;
5277;SDS011;2662;51.194;6.614;2024-01-15T12:06:45;0.70;;;0.70;;
5277;SDS011;2662;51.194;6.614;2024-01-15T12:09:22;0.70;;;0.70;;
5277;SDS011;2662;51.194;6.614;2024-01-15T12:14:59;1.17;;;0.97;;
5277;SDS011;2662;51.194;6.614;2024-01-15T12:17:26;0.93;;;0.80;;
5277;SDS011;2662;51.194;6.614;2024-01-15T12:19:53;0.70;;;0.70;;
5277;SDS011;2662;51.194;6.614;2024-01-15T12:22:21;1.40;;;1.30;;
5277;SDS011;2662;51.194;6.614;2024-01-15T12:24:48;3.23;;;1.20;;
5277;SDS011;2662;51.194;6.614;2024-01-15T12:27:16;1.20;;;1.10;;
5277;SDS011;2662;51.194;6.614;2024-01-15T12:29:45;1.43;;;1.23;;
5277;SDS011;2662;51.194;6.614;2024-01-15T12:32:15;1.07;;;1.07;;
5277;SDS011;2662;51.194;6.614;2024-01-15T12:34:43;0.57;;;0.57;;
5277;SDS011;2662;51.194;6.614;2024-01-15T12:37:10;0.80;;;0.80;;
5277;SDS011;2662;51.194;6.614;2024-01-15T12:39:42;1.63;;;1.20;;
5277;SDS011;2662;51.194;6.614;2024-01-15T12:42:10;0.93;;;0.80;;
5277;SDS011;2662;51.194;6.614;2024-01-15T12:44:41;5.57;;;1.00;;
5277;SDS011;2662;51.194;6.614;2024-01-15T12:47:08;4.97;;;1.27;;
5277;SDS011;2662;51.194;6.614;2024-01-15T12:49:35;1.63;;;1.27;;
5277;SDS011;2662;51.194;6.614;2024-01-15T12:52:07;0.60;;;0.60;;
5277;SDS011;2662;51.194;6.614;2024-01-15T12:54:37;0.97;;;0.97;;
5277;SDS011;2662;51.194;6.614;2024-01-15T12:57:04;0.50;;;0.50;;
5277;SDS011;2662;51.194;6.614;2024-01-15T12:59:32;0.60;;;0.57;;
5277;SDS011;2662;51.194;6.614;2024-01-15T13:02:01;0.70;;;0.70;;
5277;SDS011;2662;51.194;6.614;2024-01-15T13:04:29;1.23;;;0.80;;
5277;SDS011;2662;51.194;6.614;2024-01-15T13:06:56;0.43;;;0.43;;
5277;SDS011;2662;51.194;6.614;2024-01-15T13:09:23;0.87;;;0.87;;
5277;SDS011;2662;51.194;6.614;2024-01-15T13:11:52;1.17;;;1.07;;
5277;SDS011;2662;51.194;6.614;2024-01-15T13:14:19;1.10;;;0.50;;
5277;SDS011;2662;51.194;6.614;2024-01-15T13:16:47;0.47;;;0.47;;
5277;SDS011;2662;51.194;6.614;2024-01-15T13:19:16;0.80;;;0.57;;
5277;SDS011;2662;51.194;6.614;2024-01-15T13:21:52;1.70;;;0.90;;
5277;SDS011;2662;51.194;6.614;2024-01-15T13:24:21;0.50;;;0.50;;
5277;SDS011;2662;51.194;6.614;2024-01-15T13:26:48;1.27;;;0.93;;
5277;SDS011;2662;51.194;6.614;2024-01-15T13:29:18;0.30;;;0.30;;
5277;SDS011;2662;51.194;6.614;2024-01-15T13:31:46;0.63;;;0.40;;
5277;SDS011;2662;51.194;6.614;2024-01-15T13:34:13;0.30;;;0.30;;
5277;SDS011;2662;51.194;6.614;2024-01-15T13:36:44;0.30;;;0.30;;
5277;SDS011;2662;51.194;6.614;2024-01-15T13:39:12;0.30;;;0.30;;
5277;SDS011;2662;51.194;6.614;2024-01-15T13:41:45;1.80;;;0.70;;
5277;SDS011;2662;51.194;6.614;2024-01-15T13:44:18;0.50;;;0.50;;
5277;SDS011;2662;51.194;6.614;2024-01-15T13:46:45;2.57;;;0.53;;
5277;SDS011;2662;51.194;6.614;2024-01-15T13:49:12;0.40;;;0.40;;
5277;SDS011;2662;51.194;6.614;2024-01-15T13:51:41;0.30;;;0.30;;
5277;SDS011;2662;51.194;6.614;2024-01-15T13:54:10;0.40;;;0.40;;
5277;SDS011;2662;51.194;6.614;2024-01-15T13:56:38;0.40;;;0.40;;
5277;SDS011;2662;51.194;6.614;2024-01-15T13:59:05;0.30;;;0.30;;
5277;SDS011;2662;51.194;6.614;2024-01-15T14:01:34;0.50;;;0.50;;
5277;SDS011;2662;51.194;6.614;2024-01-15T14:04:02;0.33;;;0.33;;
5277;SDS011;2662;51.194;6.614;2024-01-15T14:06:30;0.50;;;0.50;;
5277;SDS011;2662;51.194;6.614;2024-01-15T14:08:59;0.30;;;0.30;;
5277;SDS011;2662;51.194;6.614;2024-01-15T14:11:39;2.80;;;0.93;;
5277;SDS011;2662;51.194;6.614;2024-01-15T14:14:07;5.93;;;0.47;;
5277;SDS011;2662;51.194;6.614;2024-01-15T14:16:35;0.73;;;0.40;;
5277;SDS011;2662;51.194;6.614;2024-01-15T14:19:03;0.47;;;0.47;;
5277;SDS011;2662;51.194;6.614;2024-01-15T14:21:31;0.30;;;0.30;;
5277;SDS011;2662;51.194;6.614;2024-01-15T14:24:00;0.30;;;0.30;;
5277;SDS011;2662;51.194;6.614;2024-01-15T14:26:28;0.33;;;0.33;;
5277;SDS011;2662;51.194;6.614;2024-01-15T14:28:57;1.07;;;0.47;;
5277;SDS011;2662;51.194;6.614;2024-01-15T14:31:26;0.87;;;0.50;;
5277;SDS011;2662;51.194;6.614;2024-01-15T14:33:54;1.00;;;0.30;;
5277;SDS011;2662;51.194;6.614;2024-01-15T14:36:21;0.30;;;0.30;;
5277;SDS011;2662;51.194;6.614;2024-01-15T14:38:48;0.50;;;0.40;;
5277;SDS011;2662;51.194;6.614;2024-01-15T14:44:04;0.40;;;0.40;;
5277;SDS011;2662;51.194;6.614;2024-01-15T14:46:32;0.30;;;0.30;;
5277;SDS011;2662;51.194;6.614;2024-01-15T14:48:58;0.30;;;0.30;;
5277;SDS011;2662;51.194;6.614;2024-01-15T14:51:26;0.30;;;0.30;;
5277;SDS011;2662;51.194;6.614;2024-01-15T14:53:53;0.53;;;0.30;;
5277;SDS011;2662;51.194;6.614;2024-01-15T14:56:27;0.30;;;0.30;;
5277;SDS011;2662;51.194;6.614;2024-01-15T14:58:57;0.40;;;0.40;;
5277;SDS011;2662;51.194;6.614;2024-01-15T15:01:24;0.30;;;0.30;;
5277;SDS011;2662;51.194;6.614;2024-01-15T15:03:53;0.70;;;0.70;;
5277;SDS011;2662;51.194;6.614;2024-01-15T15:06:22;0.80;;;0.80;;
5277;SDS011;2662;51.194;6.614;2024-01-15T15:08:54;0.30;;;0.30;;
5277;SDS011;2662;51.194;6.614;2024-01-15T15:11:24;0.30;;;0.30;;
5277;SDS011;2662;51.194;6.614;2024-01-15T15:13:51;0.33;;;0.33;;
5277;SDS011;2662;51.194;6.614;2024-01-15T15:16:23;1.07;;;0.77;;
5277;SDS011;2662;51.194;6.614;2024-01-15T15:18:50;0.43;;;0.40;;
5277;SDS011;2662;51.194;6.614;2024-01-15T15:21:20;0.30;;;0.30;;
5277;SDS011;2662;51.194;6.614;2024-01-15T15:26:28;0.47;;;0.47;;
5277;SDS011;2662;51.194;6.614;2024-01-15T15:28:54;0.50;;;0.50;;
5277;SDS011;2662;51.194;6.614;2024-01-15T15:31:25;0.30;;;0.30;;
5277;SDS011;2662;51.194;6.614;2024-01-15T15:33:54;0.30;;;0.30;;
5277;SDS011;2662;51.194;6.614;2024-01-15T15:36:21;0.20;;;0.20;;
5277;SDS011;2662;51.194;6.614;2024-01-15T15:38:51;0.83;;;0.50;;
5277;SDS011;2662;51.194;6.614;2024-01-15T15:41:20;0.50;;;0.30;;
5277;SDS011;2662;51.194;6.614;2024-01-15T15:43:50;0.30;;;0.30;;
5277;SDS011;2662;51.194;6.614;2024-01-15T15:46:17;0.50;;;0.40;;
5277;SDS011;2662;51.194;6.614;2024-01-15T15:48:52;0.30;;;0.30;;
5277;SDS011;2662;51.194;6.614;2024-01-15T15:51:20;0.30;;;0.30;;
5277;SDS011;2662;51.194;6.614;2024-01-15T15:53:54;0.30;;;0.30;;
5277;SDS011;2662;51.194;6.614;2024-01-15T15:56:35;0.30;;;0.30;;
5277;SDS011;2662;51.194;6.614;2024-01-15T15:59:05;0.90;;;0.40;;
5277;SDS011;2662;51.194;6.614;2024-01-15T16:01:34;0.53;;;0.53;;
5277;SDS011;2662;51.194;6.614;2024-01-15T16:04:03;0.37;;;0.37;;